createdAt,value
2023-10-22T00:00:56.483Z,0.93
2023-10-22T00:03:23.727Z,1.10
2023-10-22T00:05:51.059Z,0.88
2023-10-22T00:08:17.932Z,1.02
2023-10-22T00:10:45.076Z,0.80
2023-10-22T00:13:12.131Z,0.63
2023-10-22T00:15:39.240Z,0.52
2023-10-22T00:18:06.432Z,0.60
2023-10-22T00:20:34.349Z,0.85
2023-10-22T00:23:01.553Z,0.68
2023-10-22T00:25:28.719Z,0.77
2023-10-22T00:27:56.533Z,0.70
2023-10-22T00:30:23.548Z,0.82
2023-10-22T00:32:50.796Z,0.75
2023-10-22T00:35:18.209Z,0.70
2023-10-22T00:37:45.806Z,0.90
2023-10-22T00:40:14.652Z,1.00
2023-10-22T00:42:41.668Z,0.73
2023-10-22T00:45:08.938Z,0.73
2023-10-22T00:47:38.092Z,0.80
2023-10-22T00:50:06.073Z,0.82
2023-10-22T00:52:33.386Z,0.80
2023-10-22T00:55:02.370Z,0.47
2023-10-22T00:57:31.015Z,0.60
2023-10-22T00:59:58.055Z,1.17
2023-10-22T01:02:25.342Z,0.70
2023-10-22T01:04:52.476Z,0.60
2023-10-22T01:07:20.642Z,0.70
2023-10-22T01:09:48.627Z,0.70
2023-10-22T01:12:15.692Z,0.60
2023-10-22T01:14:42.733Z,0.45
2023-10-22T01:17:09.746Z,0.60
2023-10-22T01:19:36.890Z,0.68
2023-10-22T01:22:04.289Z,0.60
2023-10-22T01:24:35.007Z,0.60
2023-10-22T01:27:02.136Z,0.52
2023-10-22T01:29:29.098Z,0.47
2023-10-22T01:31:56.153Z,0.52
2023-10-22T01:34:23.157Z,0.40
2023-10-22T01:36:50.279Z,0.60
2023-10-22T01:39:18.829Z,1.25
2023-10-22T01:41:46.029Z,0.63
2023-10-22T01:44:13.238Z,0.70
2023-10-22T01:46:40.698Z,1.02
2023-10-22T01:49:09.444Z,0.60
2023-10-22T01:51:36.743Z,0.52
2023-10-22T01:54:03.802Z,0.60
2023-10-22T01:56:31.106Z,0.50
2023-10-22T01:58:58.170Z,0.40
2023-10-22T02:01:26.900Z,0.55
2023-10-22T02:03:53.955Z,0.85
2023-10-22T02:06:20.954Z,0.50
2023-10-22T02:08:47.788Z,0.70
2023-10-22T02:11:15.773Z,0.60
2023-10-22T02:13:42.928Z,0.70
2023-10-22T02:16:09.967Z,0.60
2023-10-22T02:18:37.090Z,0.60
2023-10-22T02:21:04.671Z,1.02
2023-10-22T02:23:32.044Z,0.90
2023-10-22T02:25:58.992Z,0.70
2023-10-22T02:28:26.054Z,0.70
2023-10-22T02:30:53.095Z,0.95
2023-10-22T02:33:20.364Z,0.65
2023-10-22T02:35:47.965Z,0.60
2023-10-22T02:38:17.095Z,0.70
2023-10-22T02:40:45.977Z,0.68
2023-10-22T02:43:13.073Z,0.70
2023-10-22T02:45:52.460Z,0.60
2023-10-22T02:48:20.242Z,0.80
2023-10-22T02:50:47.882Z,0.85
2023-10-22T02:53:15.331Z,0.60
2023-10-22T02:55:42.401Z,0.80
2023-10-22T02:58:09.590Z,0.90
2023-10-22T03:00:37.661Z,0.90
2023-10-22T03:03:06.460Z,0.82
2023-10-22T03:05:34.661Z,0.77
2023-10-22T03:08:02.495Z,0.90
2023-10-22T03:10:29.652Z,1.10
2023-10-22T03:12:59.155Z,1.88
2023-10-22T03:15:26.205Z,1.27
2023-10-22T03:17:55.146Z,2.30
2023-10-22T03:20:24.063Z,1.55
2023-10-22T03:22:51.686Z,1.90
2023-10-22T03:25:19.936Z,2.55
2023-10-22T03:27:47.172Z,1.35
2023-10-22T03:30:14.926Z,2.33
2023-10-22T03:32:42.269Z,1.95
2023-10-22T03:35:09.735Z,1.27
2023-10-22T03:37:36.974Z,1.48
2023-10-22T03:40:05.898Z,1.15
2023-10-22T03:42:33.163Z,1.60
2023-10-22T03:45:01.514Z,1.05
2023-10-22T03:47:28.557Z,1.13
2023-10-22T03:49:55.638Z,1.85
2023-10-22T03:52:29.488Z,1.50
2023-10-22T03:54:57.798Z,1.58
2023-10-22T03:57:25.442Z,1.33
2023-10-22T03:59:52.842Z,1.45
2023-10-22T04:02:19.836Z,1.52
2023-10-22T04:04:46.849Z,2.10
2023-10-22T04:07:13.958Z,1.83
2023-10-22T04:09:40.857Z,1.70
2023-10-22T04:12:09.430Z,1.65
2023-10-22T04:14:37.886Z,1.63
2023-10-22T04:17:05.346Z,1.25
2023-10-22T04:19:33.677Z,1.20
2023-10-22T04:22:00.639Z,1.20
2023-10-22T04:24:27.660Z,1.50
2023-10-22T04:26:54.734Z,1.63
2023-10-22T04:29:22.777Z,1.02
2023-10-22T04:31:49.628Z,1.13
2023-10-22T04:34:16.684Z,1.00
2023-10-22T04:36:44.096Z,1.40
2023-10-22T04:39:11.595Z,1.23
2023-10-22T04:41:38.813Z,1.30
2023-10-22T04:44:06.655Z,1.27
2023-10-22T04:46:33.655Z,1.10
2023-10-22T04:49:00.645Z,0.85
2023-10-22T04:51:27.805Z,0.90
2023-10-22T04:53:54.733Z,1.00
2023-10-22T04:56:21.769Z,1.10
2023-10-22T04:58:49.213Z,0.88
2023-10-22T05:01:16.336Z,1.15
2023-10-22T05:03:44.638Z,1.30
2023-10-22T05:06:13.017Z,1.10
2023-10-22T05:08:41.415Z,1.02
2023-10-22T05:11:18.272Z,1.00
2023-10-22T05:13:45.727Z,1.10
2023-10-22T05:16:13.216Z,0.88
2023-10-22T05:18:40.891Z,1.38
2023-10-22T05:21:08.886Z,1.20
2023-10-22T05:23:36.728Z,1.20
2023-10-22T05:26:14.042Z,1.10
2023-10-22T05:28:41.269Z,1.50
2023-10-22T05:31:28.583Z,1.30
2023-10-22T05:33:55.787Z,1.00
2023-10-22T05:36:23.126Z,1.35
2023-10-22T05:38:50.708Z,1.73
2023-10-22T05:41:22.998Z,1.58
2023-10-22T05:43:52.436Z,1.50
2023-10-22T05:46:19.849Z,1.70
2023-10-22T05:48:46.726Z,2.20
2023-10-22T05:51:13.739Z,1.20
2023-10-22T05:53:40.863Z,1.10
2023-10-22T05:56:07.906Z,1.15
2023-10-22T05:58:34.918Z,0.90
2023-10-22T06:01:01.824Z,1.30
2023-10-22T06:03:29.012Z,1.33
2023-10-22T06:05:56.270Z,1.13
2023-10-22T06:08:23.540Z,1.50
2023-10-22T06:10:50.632Z,1.20
2023-10-22T06:13:17.634Z,1.20
2023-10-22T06:15:45.786Z,1.90
2023-10-22T06:18:13.603Z,0.98
2023-10-22T06:20:41.132Z,1.50
2023-10-22T06:23:09.550Z,1.50
2023-10-22T06:25:36.581Z,1.42
2023-10-22T06:28:03.544Z,1.50
2023-10-22T06:30:30.602Z,1.30
2023-10-22T06:32:58.919Z,2.10
2023-10-22T06:35:29.811Z,1.00
2023-10-22T06:37:57.528Z,1.92
2023-10-22T06:40:25.344Z,1.63
2023-10-22T06:42:52.801Z,1.70
2023-10-22T06:45:20.512Z,1.70
2023-10-22T06:47:48.345Z,1.80
2023-10-22T06:50:16.195Z,1.45
2023-10-22T06:52:44.220Z,2.22
2023-10-22T06:55:11.866Z,1.95
2023-10-22T06:57:43.721Z,1.90
2023-10-22T07:00:14.167Z,1.30
2023-10-22T07:02:41.831Z,1.40
2023-10-22T07:05:11.713Z,1.20
2023-10-22T07:07:45.048Z,1.27
2023-10-22T07:10:12.013Z,1.30
2023-10-22T07:12:39.095Z,1.30
2023-10-22T07:15:07.405Z,0.98
2023-10-22T07:17:34.332Z,0.88
2023-10-22T07:20:01.395Z,0.90
2023-10-22T07:22:29.260Z,1.40
2023-10-22T07:24:56.277Z,1.00
2023-10-22T07:27:23.437Z,1.20
2023-10-22T07:29:50.452Z,1.10
2023-10-22T07:32:17.454Z,1.50
2023-10-22T07:34:45.311Z,1.08
2023-10-22T07:37:13.056Z,0.93
2023-10-22T07:39:40.171Z,1.00
2023-10-22T07:42:07.306Z,1.45
2023-10-22T07:44:34.375Z,1.10
2023-10-22T07:47:01.354Z,1.08
2023-10-22T07:49:28.644Z,1.60
2023-10-22T07:51:55.859Z,1.00
2023-10-22T07:54:23.048Z,0.95
2023-10-22T07:56:49.975Z,0.90
2023-10-22T07:59:17.819Z,1.02
2023-10-22T08:01:44.971Z,0.70
2023-10-22T08:04:11.987Z,1.10
2023-10-22T08:06:39.002Z,0.95
2023-10-22T08:09:06.042Z,1.10
2023-10-22T08:11:33.366Z,0.90
2023-10-22T08:14:00.548Z,0.98
2023-10-22T08:16:27.644Z,1.25
2023-10-22T08:18:54.725Z,1.05
2023-10-22T08:21:23.599Z,1.10
2023-10-22T08:23:50.924Z,1.00
2023-10-22T08:26:17.996Z,1.00
2023-10-22T08:28:44.885Z,0.98
2023-10-22T08:31:12.857Z,1.00
2023-10-22T08:33:40.053Z,1.20
2023-10-22T08:36:10.499Z,0.98
2023-10-22T08:38:38.486Z,1.10
2023-10-22T08:41:07.648Z,1.65
2023-10-22T08:43:40.129Z,1.20
2023-10-22T08:46:07.633Z,2.70
2023-10-22T08:48:35.090Z,3.15
2023-10-22T08:51:04.496Z,3.03
2023-10-22T08:53:31.867Z,2.80
2023-10-22T08:56:01.654Z,3.55
2023-10-22T09:00:55.652Z,3.30
2023-10-22T09:03:26.537Z,2.60
2023-10-22T09:05:55.060Z,2.50
2023-10-22T09:08:40.336Z,2.28
2023-10-22T09:11:17.078Z,2.00
2023-10-22T09:13:45.313Z,1.88
2023-10-22T09:16:12.999Z,2.20
2023-10-22T09:18:46.437Z,1.60
2023-10-22T09:21:13.692Z,1.80
2023-10-22T09:23:43.645Z,1.63
2023-10-22T09:26:11.922Z,1.85
2023-10-22T09:28:39.146Z,1.98
2023-10-22T09:31:06.572Z,1.75
2023-10-22T09:33:39.298Z,2.17
2023-10-22T09:36:08.645Z,1.65
2023-10-22T09:38:49.737Z,1.60
2023-10-22T09:41:30.343Z,1.70
2023-10-22T09:43:59.621Z,1.63
2023-10-22T09:46:33.798Z,1.50
2023-10-22T09:49:02.724Z,1.30
2023-10-22T09:51:35.637Z,1.65
2023-10-22T09:54:07.277Z,1.30
2023-10-22T09:56:50.278Z,0.93
2023-10-22T09:59:19.377Z,1.30
2023-10-22T10:01:47.238Z,1.38
2023-10-22T10:04:15.240Z,1.80
2023-10-22T10:06:43.629Z,2.38
2023-10-22T10:09:11.408Z,4.22
2023-10-22T10:11:39.696Z,2.97
2023-10-22T10:14:32.653Z,2.33
2023-10-22T10:17:02.288Z,4.10
2023-10-22T10:21:56.934Z,6.65
2023-10-22T10:24:29.476Z,6.30
2023-10-22T10:26:59.232Z,3.15
2023-10-22T10:29:33.183Z,2.03
2023-10-22T10:32:42.728Z,1.80
2023-10-22T10:35:10.288Z,1.83
2023-10-22T10:37:37.422Z,1.75
2023-10-22T10:40:07.021Z,2.13
2023-10-22T10:45:03.738Z,1.70
2023-10-22T10:47:33.948Z,1.27
2023-10-22T10:50:08.737Z,1.20
2023-10-22T10:52:47.643Z,1.15
2023-10-22T10:55:20.865Z,1.27
2023-10-22T10:57:49.331Z,1.20
2023-10-22T11:00:23.086Z,1.60
2023-10-22T11:02:52.100Z,0.90
2023-10-22T11:05:40.984Z,1.30
2023-10-22T11:08:14.055Z,1.02
2023-10-22T11:10:41.356Z,0.98
2023-10-22T11:13:09.587Z,1.10
2023-10-22T11:15:38.380Z,0.77
2023-10-22T11:18:07.599Z,1.30
2023-10-22T11:20:35.412Z,0.90
2023-10-22T11:23:02.523Z,1.00
2023-10-22T11:25:30.986Z,0.98
2023-10-22T11:27:59.751Z,1.00
2023-10-22T11:30:40.506Z,1.43
2023-10-22T11:33:09.353Z,1.38
2023-10-22T11:35:38.811Z,2.22
2023-10-22T11:38:07.360Z,1.40
2023-10-22T11:40:38.238Z,0.98
2023-10-22T11:43:16.832Z,0.73
2023-10-22T11:45:54.409Z,1.88
2023-10-22T11:48:23.518Z,1.90
2023-10-22T11:50:56.486Z,0.70
2023-10-22T11:53:23.991Z,1.70
2023-10-22T11:55:51.142Z,2.95
2023-10-22T11:58:25.303Z,0.77
2023-10-22T12:00:52.738Z,1.05
2023-10-22T12:03:20.096Z,0.80
2023-10-22T12:05:47.178Z,0.77
2023-10-22T12:08:14.184Z,0.88
2023-10-22T12:10:41.324Z,0.50
2023-10-22T12:13:08.576Z,1.55
2023-10-22T12:15:36.641Z,0.82
2023-10-22T12:18:06.549Z,0.77
2023-10-22T12:20:33.980Z,0.82
2023-10-22T12:23:00.893Z,0.63
2023-10-22T12:25:32.431Z,0.90
2023-10-22T12:27:59.872Z,0.63
2023-10-22T12:30:27.896Z,0.90
2023-10-22T12:32:55.769Z,0.60
2023-10-22T12:35:24.358Z,0.60
2023-10-22T12:37:52.542Z,0.70
2023-10-22T12:40:19.682Z,0.88
2023-10-22T12:42:46.728Z,0.80
2023-10-22T12:45:14.250Z,1.38
2023-10-22T12:47:41.479Z,0.57
2023-10-22T12:50:09.129Z,0.93
2023-10-22T12:52:36.983Z,0.90
2023-10-22T12:55:06.125Z,0.73
2023-10-22T12:57:34.312Z,1.20
2023-10-22T13:00:05.070Z,0.98
2023-10-22T13:02:35.215Z,0.98
2023-10-22T13:05:02.630Z,1.40
2023-10-22T13:07:29.451Z,1.02
2023-10-22T13:09:56.657Z,0.95
2023-10-22T13:12:23.608Z,0.82
2023-10-22T13:14:51.398Z,0.85
2023-10-22T13:17:18.660Z,1.08
2023-10-22T13:19:46.293Z,3.40
2023-10-22T13:22:13.515Z,0.77
2023-10-22T13:24:40.740Z,0.80
2023-10-22T13:27:07.963Z,2.13
2023-10-22T13:29:34.908Z,1.00
2023-10-22T13:32:02.090Z,0.85
2023-10-22T13:34:29.050Z,0.95
2023-10-22T13:36:56.071Z,0.75
2023-10-22T13:39:23.187Z,0.85
2023-10-22T13:41:50.210Z,0.80
2023-10-22T13:44:17.212Z,0.63
2023-10-22T13:46:44.339Z,0.85
2023-10-22T13:49:11.516Z,1.00
2023-10-22T13:51:38.984Z,1.10
2023-10-22T13:54:06.533Z,0.90
2023-10-22T13:56:33.694Z,0.80
2023-10-22T13:59:01.511Z,0.80
2023-10-22T14:01:28.691Z,0.90
2023-10-22T14:03:56.996Z,0.70
2023-10-22T14:06:24.605Z,1.10
2023-10-22T14:08:51.793Z,0.80
2023-10-22T14:11:22.461Z,0.47
2023-10-22T14:13:53.185Z,0.70
2023-10-22T14:16:23.188Z,1.10
2023-10-22T14:18:50.653Z,0.80
2023-10-22T14:21:20.007Z,0.55
2023-10-22T14:23:47.888Z,1.70
2023-10-22T14:26:15.126Z,2.15
2023-10-22T14:28:42.130Z,1.38
2023-10-22T14:31:09.449Z,1.35
2023-10-22T14:33:36.645Z,1.20
2023-10-22T14:36:06.470Z,1.58
2023-10-22T14:38:33.702Z,3.55
2023-10-22T14:41:04.311Z,3.58
2023-10-22T14:43:32.641Z,1.92
2023-10-22T14:46:03.826Z,2.10
2023-10-22T14:48:31.693Z,2.80
2023-10-22T14:51:00.448Z,5.47
2023-10-22T14:53:27.910Z,1.40
2023-10-22T14:56:03.680Z,0.85
2023-10-22T14:58:31.488Z,0.70
2023-10-22T15:01:06.871Z,0.90
2023-10-22T15:03:34.665Z,1.00
2023-10-22T15:06:02.016Z,0.60
2023-10-22T15:08:29.050Z,0.63
2023-10-22T15:10:56.063Z,1.08
2023-10-22T15:13:23.271Z,1.73
2023-10-22T15:15:50.268Z,1.42
2023-10-22T15:18:17.749Z,1.50
2023-10-22T15:20:47.504Z,2.63
2023-10-22T15:25:48.182Z,1.70
2023-10-22T15:28:16.234Z,1.20
2023-10-22T15:30:43.886Z,1.33
2023-10-22T15:33:11.674Z,1.30
2023-10-22T15:35:39.547Z,0.98
2023-10-22T15:38:08.328Z,1.60
2023-10-22T15:40:35.748Z,1.75
2023-10-22T15:43:03.757Z,0.88
2023-10-22T15:45:31.456Z,1.23
2023-10-22T15:48:00.191Z,1.10
2023-10-22T15:50:28.611Z,1.83
2023-10-22T15:52:58.942Z,1.50
2023-10-22T15:55:26.060Z,1.02
2023-10-22T15:57:53.122Z,0.82
2023-10-22T16:00:23.911Z,1.02
2023-10-22T16:02:51.448Z,1.20
2023-10-22T16:05:19.047Z,0.93
2023-10-22T16:07:46.253Z,1.08
2023-10-22T16:10:14.837Z,1.02
2023-10-22T16:12:43.261Z,1.08
2023-10-22T16:15:13.666Z,1.00
2023-10-22T16:17:43.625Z,1.50
2023-10-22T16:20:13.446Z,1.67
2023-10-22T16:22:41.273Z,0.85
2023-10-22T16:25:09.211Z,1.75
2023-10-22T16:27:37.036Z,1.33
2023-10-22T16:30:05.120Z,1.15
2023-10-22T16:32:32.415Z,0.93
2023-10-22T16:34:59.575Z,1.45
2023-10-22T16:37:26.733Z,0.85
2023-10-22T16:39:53.665Z,1.10
2023-10-22T16:42:20.775Z,0.90
2023-10-22T16:44:51.953Z,1.33
2023-10-22T16:47:19.422Z,1.30
2023-10-22T16:49:46.561Z,1.33
2023-10-22T16:52:13.824Z,1.77
2023-10-22T16:54:41.620Z,1.80
2023-10-22T16:57:08.732Z,1.73
2023-10-22T16:59:35.764Z,1.70
2023-10-22T17:02:03.069Z,1.30
2023-10-22T17:04:30.236Z,1.10
2023-10-22T17:06:57.310Z,1.30
2023-10-22T17:09:25.468Z,1.38
2023-10-22T17:11:52.683Z,1.60
2023-10-22T17:14:19.790Z,1.27
2023-10-22T17:16:46.806Z,1.85
2023-10-22T17:19:14.024Z,1.85
2023-10-22T17:21:41.349Z,1.40
2023-10-22T17:24:09.041Z,1.40
2023-10-22T17:26:36.159Z,2.05
2023-10-22T17:29:03.225Z,1.70
2023-10-22T17:31:30.560Z,2.42
2023-10-22T17:34:05.138Z,1.75
2023-10-22T17:36:33.706Z,2.50
2023-10-22T17:39:00.875Z,2.30
2023-10-22T17:41:27.898Z,6.30
2023-10-22T17:43:55.007Z,4.20
2023-10-22T17:46:22.083Z,3.75
2023-10-22T17:48:50.290Z,2.30
2023-10-22T17:51:18.230Z,2.38
2023-10-22T17:53:48.787Z,2.60
2023-10-22T17:56:16.039Z,2.08
2023-10-22T17:58:44.213Z,1.90
2023-10-22T18:01:13.300Z,1.70
2023-10-22T18:03:40.534Z,1.70
2023-10-22T18:06:09.113Z,2.28
2023-10-22T18:08:36.636Z,2.60
2023-10-22T18:11:04.386Z,2.95
2023-10-22T18:13:32.426Z,4.15
2023-10-22T18:15:59.911Z,3.10
2023-10-22T18:18:27.327Z,3.25
2023-10-22T18:20:56.111Z,3.53
2023-10-22T18:23:24.561Z,5.95
2023-10-22T18:26:05.317Z,7.32
2023-10-22T18:28:33.025Z,3.60
2023-10-22T18:31:00.321Z,2.72
2023-10-22T18:33:27.621Z,2.88
2023-10-22T18:35:56.086Z,2.40
2023-10-22T18:38:23.294Z,3.33
2023-10-22T18:40:51.346Z,2.67
2023-10-22T18:43:18.536Z,2.83
2023-10-22T18:45:46.027Z,2.70
2023-10-22T18:48:14.272Z,2.50
2023-10-22T18:50:41.700Z,3.47
2023-10-22T18:53:08.770Z,11.45
2023-10-22T18:55:35.807Z,1.92
2023-10-22T18:58:02.866Z,1.92
2023-10-22T19:00:29.810Z,1.88
2023-10-22T19:02:57.150Z,1.83
2023-10-22T19:05:24.540Z,2.53
2023-10-22T19:07:51.489Z,2.53
2023-10-22T19:10:18.761Z,2.22
2023-10-22T19:12:46.189Z,3.42
2023-10-22T19:15:13.747Z,2.60
2023-10-22T19:17:42.994Z,2.17
2023-10-22T19:20:12.022Z,3.03
2023-10-22T19:22:40.259Z,2.53
2023-10-22T19:25:08.240Z,3.33
2023-10-22T19:27:38.251Z,2.80
2023-10-22T19:30:08.821Z,2.08
2023-10-22T19:32:36.003Z,2.40
2023-10-22T19:35:04.981Z,2.67
2023-10-22T19:37:33.700Z,2.43
2023-10-22T19:40:03.763Z,2.72
2023-10-22T19:42:31.386Z,2.10
2023-10-22T19:44:59.787Z,2.15
2023-10-22T19:47:28.306Z,2.22
2023-10-22T19:49:59.031Z,2.53
2023-10-22T19:52:37.599Z,3.10
2023-10-22T19:55:09.393Z,1.92
2023-10-22T19:57:38.185Z,2.22
2023-10-22T20:00:13.480Z,1.73
2023-10-22T20:02:43.226Z,2.10
2023-10-22T20:07:37.058Z,1.83
2023-10-22T20:10:05.785Z,2.17
2023-10-22T20:12:33.060Z,2.55
2023-10-22T20:15:00.796Z,2.28
2023-10-22T20:17:27.834Z,3.35
2023-10-22T20:19:54.813Z,2.95
2023-10-22T20:22:22.061Z,2.85
2023-10-22T20:24:48.947Z,3.03
2023-10-22T20:27:15.986Z,3.15
2023-10-22T20:29:43.009Z,2.58
2023-10-22T20:32:10.449Z,3.25
2023-10-22T20:34:37.573Z,2.60
2023-10-22T20:37:06.869Z,2.95
2023-10-22T20:39:34.084Z,3.42
2023-10-22T20:42:01.124Z,3.00
2023-10-22T20:44:28.114Z,3.28
2023-10-22T20:46:55.229Z,3.05
2023-10-22T20:49:22.269Z,2.85
2023-10-22T20:51:49.329Z,3.40
2023-10-22T20:54:16.860Z,3.38
2023-10-22T20:56:44.008Z,3.53
2023-10-22T20:59:10.818Z,3.58
2023-10-22T21:01:37.886Z,3.00
2023-10-22T21:04:05.244Z,3.42
2023-10-22T21:06:32.564Z,3.50
2023-10-22T21:09:01.587Z,2.55
2023-10-22T21:11:28.562Z,3.22
2023-10-22T21:13:55.613Z,3.88
2023-10-22T21:16:22.697Z,3.00
2023-10-22T21:18:50.008Z,3.20
2023-10-22T21:21:17.316Z,3.65
2023-10-22T21:23:48.046Z,3.42
2023-10-22T21:26:14.958Z,4.05
2023-10-22T21:28:42.016Z,4.43
2023-10-22T21:31:08.974Z,3.90
2023-10-22T21:33:36.897Z,3.80
2023-10-22T21:36:03.965Z,3.13
2023-10-22T21:38:31.438Z,4.60
2023-10-22T21:40:58.812Z,3.50
2023-10-22T21:43:26.411Z,3.40
2023-10-22T21:45:56.455Z,3.60
2023-10-22T21:48:23.705Z,3.78
2023-10-22T21:50:50.774Z,3.42
2023-10-22T21:53:17.785Z,4.07
2023-10-22T21:55:52.179Z,3.58
2023-10-22T21:58:19.858Z,3.80
2023-10-22T22:00:47.576Z,4.00
2023-10-22T22:03:17.747Z,3.55
2023-10-22T22:05:44.971Z,3.88
2023-10-22T22:08:11.978Z,3.47
2023-10-22T22:10:39.058Z,4.10
2023-10-22T22:13:06.088Z,4.18
2023-10-22T22:15:33.240Z,3.47
2023-10-22T22:18:00.187Z,3.55
2023-10-22T22:20:27.358Z,4.28
2023-10-22T22:22:54.380Z,3.65
2023-10-22T22:25:23.852Z,4.40
2023-10-22T22:27:53.744Z,4.07
2023-10-22T22:30:20.694Z,4.22
2023-10-22T22:32:47.864Z,3.92
2023-10-22T22:35:16.108Z,3.80
2023-10-22T22:37:43.157Z,4.32
2023-10-22T22:40:10.865Z,4.60
2023-10-22T22:42:38.040Z,4.07
2023-10-22T22:45:05.356Z,4.22
2023-10-22T22:47:32.896Z,3.58
2023-10-22T22:49:59.977Z,4.05
2023-10-22T22:52:27.042Z,4.22
2023-10-22T22:54:54.174Z,4.60
2023-10-22T22:57:21.207Z,4.57
2023-10-22T22:59:48.232Z,3.75
2023-10-22T23:02:15.222Z,4.53
2023-10-22T23:04:42.258Z,4.28
2023-10-22T23:07:09.429Z,3.55
2023-10-22T23:09:36.402Z,4.43
2023-10-22T23:12:03.502Z,5.10
2023-10-22T23:14:30.478Z,4.28
2023-10-22T23:16:57.523Z,4.45
2023-10-22T23:19:26.702Z,5.75
2023-10-22T23:21:53.664Z,5.10
2023-10-22T23:24:20.737Z,4.72
2023-10-22T23:26:47.724Z,3.70
2023-10-22T23:29:14.778Z,4.10
2023-10-22T23:31:42.551Z,4.65
2023-10-22T23:34:09.754Z,4.70
2023-10-22T23:36:36.783Z,4.65
2023-10-22T23:39:06.031Z,4.28
2023-10-22T23:41:33.808Z,4.07
2023-10-22T23:44:01.137Z,4.30
2023-10-22T23:46:28.288Z,5.47
2023-10-22T23:48:55.290Z,4.60
2023-10-22T23:51:22.362Z,4.95
2023-10-22T23:53:49.335Z,4.40
2023-10-22T23:56:16.433Z,4.10
2023-10-22T23:58:43.434Z,4.75
